sensor_id;sensor_type;location;lat;lon;timestamp;P1;durP1;ratioP1;P2;durP2;ratioP2
39222;SDS011;24936;46.328;11.026;2023-06-04T00:01:03;1.55;;;0.50;;
39222;SDS011;24936;46.328;11.026;2023-06-04T00:03:30;0.93;;;0.60;;
39222;SDS011;24936;46.328;11.026;2023-06-04T00:05:56;0.82;;;0.47;;
39222;SDS011;24936;46.328;11.026;2023-06-04T00:08:22;0.73;;;0.47;;
39222;SDS011;24936;46.328;11.026;2023-06-04T00:10:48;0.60;;;0.50;;
39222;SDS011;24936;46.328;11.026;2023-06-04T00:13:13;0.70;;;0.50;;
39222;SDS011;24936;46.328;11.026;2023-06-04T00:15:39;1.15;;;0.65;;
39222;SDS011;24936;46.328;11.026;2023-06-04T00:18:05;0.73;;;0.50;;
39222;SDS011;24936;46.328;11.026;2023-06-04T00:20:30;1.13;;;0.50;;
39222;SDS011;24936;46.328;11.026;2023-06-04T00:22:56;0.77;;;0.60;;
39222;SDS011;24936;46.328;11.026;2023-06-04T00:25:22;0.63;;;0.40;;
39222;SDS011;24936;46.328;11.026;2023-06-04T00:27:47;0.55;;;0.38;;
39222;SDS011;24936;46.328;11.026;2023-06-04T00:30:13;1.38;;;0.38;;
39222;SDS011;24936;46.328;11.026;2023-06-04T00:32:39;0.57;;;0.40;;
39222;SDS011;24936;46.328;11.026;2023-06-04T00:35:05;0.50;;;0.30;;
39222;SDS011;24936;46.328;11.026;2023-06-04T00:37:31;0.28;;;0.28;;
39222;SDS011;24936;46.328;11.026;2023-06-04T00:39:56;0.50;;;0.35;;
39222;SDS011;24936;46.328;11.026;2023-06-04T00:42:22;0.50;;;0.40;;
39222;SDS011;24936;46.328;11.026;2023-06-04T00:44:48;0.40;;;0.30;;
39222;SDS011;24936;46.328;11.026;2023-06-04T00:47:15;0.43;;;0.20;;
39222;SDS011;24936;46.328;11.026;2023-06-04T00:49:41;0.40;;;0.32;;
39222;SDS011;24936;46.328;11.026;2023-06-04T00:54:34;0.50;;;0.40;;
39222;SDS011;24936;46.328;11.026;2023-06-04T00:57:01;1.08;;;0.40;;
39222;SDS011;24936;46.328;11.026;2023-06-04T00:59:27;0.70;;;0.50;;
39222;SDS011;24936;46.328;11.026;2023-06-04T01:02:01;1.63;;;0.60;;
39222;SDS011;24936;46.328;11.026;2023-06-04T01:04:34;0.50;;;0.30;;
39222;SDS011;24936;46.328;11.026;2023-06-04T01:07:07;1.00;;;0.32;;
39222;SDS011;24936;46.328;11.026;2023-06-04T01:09:34;0.40;;;0.30;;
39222;SDS011;24936;46.328;11.026;2023-06-04T01:12:03;0.50;;;0.30;;
39222;SDS011;24936;46.328;11.026;2023-06-04T01:14:29;0.60;;;0.30;;
39222;SDS011;24936;46.328;11.026;2023-06-04T01:16:59;0.20;;;0.20;;
39222;SDS011;24936;46.328;11.026;2023-06-04T01:24:54;0.47;;;0.30;;
39222;SDS011;24936;46.328;11.026;2023-06-04T01:27:24;0.40;;;0.30;;
39222;SDS011;24936;46.328;11.026;2023-06-04T01:29:50;0.70;;;0.45;;
39222;SDS011;24936;46.328;11.026;2023-06-04T01:34:45;0.50;;;0.30;;
39222;SDS011;24936;46.328;11.026;2023-06-04T01:37:12;0.50;;;0.30;;
39222;SDS011;24936;46.328;11.026;2023-06-04T01:39:38;0.50;;;0.40;;
39222;SDS011;24936;46.328;11.026;2023-06-04T01:42:04;1.70;;;0.50;;
39222;SDS011;24936;46.328;11.026;2023-06-04T01:44:29;0.70;;;0.43;;
39222;SDS011;24936;46.328;11.026;2023-06-04T01:46:55;0.40;;;0.40;;
39222;SDS011;24936;46.328;11.026;2023-06-04T01:49:20;0.70;;;0.45;;
39222;SDS011;24936;46.328;11.026;2023-06-04T01:51:46;0.63;;;0.30;;
39222;SDS011;24936;46.328;11.026;2023-06-04T01:54:12;0.70;;;0.40;;
39222;SDS011;24936;46.328;11.026;2023-06-04T01:56:37;1.08;;;0.40;;
39222;SDS011;24936;46.328;11.026;2023-06-04T01:59:03;0.60;;;0.50;;
39222;SDS011;24936;46.328;11.026;2023-06-04T02:01:29;0.70;;;0.40;;
39222;SDS011;24936;46.328;11.026;2023-06-04T02:03:54;0.65;;;0.40;;
39222;SDS011;24936;46.328;11.026;2023-06-04T02:06:20;0.50;;;0.40;;
39222;SDS011;24936;46.328;11.026;2023-06-04T02:08:46;1.38;;;0.50;;
39222;SDS011;24936;46.328;11.026;2023-06-04T02:11:11;0.60;;;0.40;;
39222;SDS011;24936;46.328;11.026;2023-06-04T02:13:37;1.08;;;0.43;;
39222;SDS011;24936;46.328;11.026;2023-06-04T02:16:03;0.60;;;0.40;;
39222;SDS011;24936;46.328;11.026;2023-06-04T02:18:28;0.50;;;0.22;;
39222;SDS011;24936;46.328;11.026;2023-06-04T02:20:54;0.77;;;0.50;;
39222;SDS011;24936;46.328;11.026;2023-06-04T02:23:21;1.00;;;0.40;;
39222;SDS011;24936;46.328;11.026;2023-06-04T02:25:47;0.50;;;0.40;;
39222;SDS011;24936;46.328;11.026;2023-06-04T02:28:14;0.63;;;0.40;;
39222;SDS011;24936;46.328;11.026;2023-06-04T02:30:40;0.50;;;0.40;;
39222;SDS011;24936;46.328;11.026;2023-06-04T02:33:06;1.13;;;0.40;;
39222;SDS011;24936;46.328;11.026;2023-06-04T02:35:35;1.27;;;0.40;;
39222;SDS011;24936;46.328;11.026;2023-06-04T02:38:01;1.00;;;0.57;;
39222;SDS011;24936;46.328;11.026;2023-06-04T02:40:27;6.22;;;0.70;;
39222;SDS011;24936;46.328;11.026;2023-06-04T02:42:53;10.35;;;0.50;;
39222;SDS011;24936;46.328;11.026;2023-06-04T02:45:19;2.38;;;0.60;;
39222;SDS011;24936;46.328;11.026;2023-06-04T02:47:45;1.30;;;0.73;;
39222;SDS011;24936;46.328;11.026;2023-06-04T02:50:11;1.77;;;0.77;;
39222;SDS011;24936;46.328;11.026;2023-06-04T02:52:37;2.13;;;0.88;;
39222;SDS011;24936;46.328;11.026;2023-06-04T02:55:05;1.85;;;0.77;;
39222;SDS011;24936;46.328;11.026;2023-06-04T02:57:32;1.00;;;0.80;;
39222;SDS011;24936;46.328;11.026;2023-06-04T02:59:58;3.60;;;0.60;;
39222;SDS011;24936;46.328;11.026;2023-06-04T03:02:25;4.20;;;0.90;;
39222;SDS011;24936;46.328;11.026;2023-06-04T03:04:51;1.40;;;0.98;;
39222;SDS011;24936;46.328;11.026;2023-06-04T03:07:17;2.17;;;0.63;;
39222;SDS011;24936;46.328;11.026;2023-06-04T03:09:46;0.88;;;0.60;;
39222;SDS011;24936;46.328;11.026;2023-06-04T03:12:12;1.00;;;0.63;;
39222;SDS011;24936;46.328;11.026;2023-06-04T03:14:38;2.88;;;0.63;;
39222;SDS011;24936;46.328;11.026;2023-06-04T03:17:03;1.00;;;0.60;;
39222;SDS011;24936;46.328;11.026;2023-06-04T03:19:39;1.27;;;0.80;;
39222;SDS011;24936;46.328;11.026;2023-06-04T03:22:06;1.20;;;0.80;;
39222;SDS011;24936;46.328;11.026;2023-06-04T03:24:37;1.70;;;0.85;;
39222;SDS011;24936;46.328;11.026;2023-06-04T03:27:04;2.38;;;0.73;;
39222;SDS011;24936;46.328;11.026;2023-06-04T03:29:32;1.63;;;0.70;;
39222;SDS011;24936;46.328;11.026;2023-06-04T03:34:24;1.20;;;0.70;;
39222;SDS011;24936;46.328;11.026;2023-06-04T03:36:54;2.15;;;0.73;;
39222;SDS011;24936;46.328;11.026;2023-06-04T03:39:20;2.78;;;0.80;;
39222;SDS011;24936;46.328;11.026;2023-06-04T03:41:46;0.77;;;0.52;;
39222;SDS011;24936;46.328;11.026;2023-06-04T03:44:15;0.93;;;0.55;;
39222;SDS011;24936;46.328;11.026;2023-06-04T03:46:42;1.13;;;0.68;;
39222;SDS011;24936;46.328;11.026;2023-06-04T03:49:09;1.10;;;0.70;;
39222;SDS011;24936;46.328;11.026;2023-06-04T03:51:35;1.17;;;0.70;;
39222;SDS011;24936;46.328;11.026;2023-06-04T03:54:03;2.05;;;0.60;;
39222;SDS011;24936;46.328;11.026;2023-06-04T03:56:30;1.17;;;0.77;;
39222;SDS011;24936;46.328;11.026;2023-06-04T03:58:55;7.88;;;1.08;;
39222;SDS011;24936;46.328;11.026;2023-06-04T04:01:21;0.95;;;0.70;;
39222;SDS011;24936;46.328;11.026;2023-06-04T04:03:48;1.13;;;0.80;;
39222;SDS011;24936;46.328;11.026;2023-06-04T04:08:40;1.42;;;0.50;;
39222;SDS011;24936;46.328;11.026;2023-06-04T04:11:13;0.90;;;0.63;;
39222;SDS011;24936;46.328;11.026;2023-06-04T04:13:40;1.58;;;0.70;;
39222;SDS011;24936;46.328;11.026;2023-06-04T04:16:06;2.20;;;1.00;;
39222;SDS011;24936;46.328;11.026;2023-06-04T04:18:32;1.73;;;0.82;;
39222;SDS011;24936;46.328;11.026;2023-06-04T04:20:59;1.17;;;0.60;;
39222;SDS011;24936;46.328;11.026;2023-06-04T04:23:24;2.75;;;0.70;;
39222;SDS011;24936;46.328;11.026;2023-06-04T04:25:50;1.13;;;0.77;;
39222;SDS011;24936;46.328;11.026;2023-06-04T04:28:16;1.42;;;0.77;;
39222;SDS011;24936;46.328;11.026;2023-06-04T04:30:42;2.55;;;0.80;;
39222;SDS011;24936;46.328;11.026;2023-06-04T04:33:09;0.98;;;0.80;;
39222;SDS011;24936;46.328;11.026;2023-06-04T04:35:35;0.63;;;0.50;;
39222;SDS011;24936;46.328;11.026;2023-06-04T04:38:01;1.35;;;0.75;;
39222;SDS011;24936;46.328;11.026;2023-06-04T04:40:30;0.68;;;0.50;;
39222;SDS011;24936;46.328;11.026;2023-06-04T04:42:56;0.90;;;0.43;;
39222;SDS011;24936;46.328;11.026;2023-06-04T04:45:23;1.00;;;0.60;;
39222;SDS011;24936;46.328;11.026;2023-06-04T04:47:48;1.77;;;0.70;;
39222;SDS011;24936;46.328;11.026;2023-06-04T04:50:16;1.42;;;0.70;;
39222;SDS011;24936;46.328;11.026;2023-06-04T04:52:41;1.00;;;0.70;;
39222;SDS011;24936;46.328;11.026;2023-06-04T04:55:08;1.40;;;0.68;;
39222;SDS011;24936;46.328;11.026;2023-06-04T04:59:59;0.80;;;0.60;;
39222;SDS011;24936;46.328;11.026;2023-06-04T05:02:25;1.65;;;0.60;;
39222;SDS011;24936;46.328;11.026;2023-06-04T05:04:50;2.33;;;0.70;;
39222;SDS011;24936;46.328;11.026;2023-06-04T05:07:16;1.48;;;0.70;;
39222;SDS011;24936;46.328;11.026;2023-06-04T05:09:41;0.80;;;0.52;;
39222;SDS011;24936;46.328;11.026;2023-06-04T05:12:07;1.25;;;0.70;;
39222;SDS011;24936;46.328;11.026;2023-06-04T05:14:33;0.85;;;0.68;;
39222;SDS011;24936;46.328;11.026;2023-06-04T05:17:01;1.05;;;0.60;;
39222;SDS011;24936;46.328;11.026;2023-06-04T05:19:28;1.13;;;0.70;;
39222;SDS011;24936;46.328;11.026;2023-06-04T05:21:54;1.33;;;0.75;;
39222;SDS011;24936;46.328;11.026;2023-06-04T05:24:19;0.73;;;0.52;;
39222;SDS011;24936;46.328;11.026;2023-06-04T05:26:45;1.33;;;0.70;;
39222;SDS011;24936;46.328;11.026;2023-06-04T05:29:13;2.78;;;1.30;;
39222;SDS011;24936;46.328;11.026;2023-06-04T05:31:38;1.25;;;0.70;;
39222;SDS011;24936;46.328;11.026;2023-06-04T05:34:09;6.43;;;0.70;;
39222;SDS011;24936;46.328;11.026;2023-06-04T06:06:19;0.40;;;0.35;;
39222;SDS011;24936;46.328;11.026;2023-06-04T06:24:57;0.38;;;0.20;;
39222;SDS011;24936;46.328;11.026;2023-06-04T06:27:46;0.50;;;0.30;;
39222;SDS011;24936;46.328;11.026;2023-06-04T06:32:48;0.25;;;0.20;;
39222;SDS011;24936;46.328;11.026;2023-06-04T06:35:15;0.50;;;0.30;;
39222;SDS011;24936;46.328;11.026;2023-06-04T06:40:19;0.50;;;0.30;;
39222;SDS011;24936;46.328;11.026;2023-06-04T06:50:30;0.40;;;0.30;;
39222;SDS011;24936;46.328;11.026;2023-06-04T07:11:07;0.30;;;0.30;;
39222;SDS011;24936;46.328;11.026;2023-06-04T07:13:36;0.47;;;0.30;;
39222;SDS011;24936;46.328;11.026;2023-06-04T07:16:03;0.47;;;0.30;;
39222;SDS011;24936;46.328;11.026;2023-06-04T07:20:58;0.50;;;0.30;;
39222;SDS011;24936;46.328;11.026;2023-06-04T07:23:24;0.40;;;0.30;;
39222;SDS011;24936;46.328;11.026;2023-06-04T07:25:51;0.32;;;0.30;;
39222;SDS011;24936;46.328;11.026;2023-06-04T07:28:22;0.52;;;0.30;;
39222;SDS011;24936;46.328;11.026;2023-06-04T07:30:48;1.77;;;0.20;;
39222;SDS011;24936;46.328;11.026;2023-06-04T07:33:16;0.32;;;0.30;;
39222;SDS011;24936;46.328;11.026;2023-06-04T07:35:48;0.50;;;0.30;;
39222;SDS011;24936;46.328;11.026;2023-06-04T07:38:17;0.40;;;0.20;;
39222;SDS011;24936;46.328;11.026;2023-06-04T07:40:44;0.50;;;0.30;;
39222;SDS011;24936;46.328;11.026;2023-06-04T07:43:11;0.30;;;0.20;;
39222;SDS011;24936;46.328;11.026;2023-06-04T07:45:39;0.43;;;0.28;;
39222;SDS011;24936;46.328;11.026;2023-06-04T07:48:04;0.40;;;0.30;;
39222;SDS011;24936;46.328;11.026;2023-06-04T07:50:30;0.60;;;0.28;;
39222;SDS011;24936;46.328;11.026;2023-06-04T07:52:59;0.68;;;0.20;;
39222;SDS011;24936;46.328;11.026;2023-06-04T07:55:24;0.20;;;0.20;;
39222;SDS011;24936;46.328;11.026;2023-06-04T07:57:50;1.55;;;0.25;;
39222;SDS011;24936;46.328;11.026;2023-06-04T08:00:23;0.85;;;0.30;;
39222;SDS011;24936;46.328;11.026;2023-06-04T08:02:49;0.60;;;0.30;;
39222;SDS011;24936;46.328;11.026;2023-06-04T08:05:17;0.20;;;0.10;;
39222;SDS011;24936;46.328;11.026;2023-06-04T08:07:45;0.43;;;0.20;;
39222;SDS011;24936;46.328;11.026;2023-06-04T08:10:12;0.32;;;0.28;;
39222;SDS011;24936;46.328;11.026;2023-06-04T08:12:44;0.30;;;0.25;;
39222;SDS011;24936;46.328;11.026;2023-06-04T08:15:16;0.32;;;0.20;;
39222;SDS011;24936;46.328;11.026;2023-06-04T08:17:43;0.50;;;0.30;;
39222;SDS011;24936;46.328;11.026;2023-06-04T08:20:21;0.35;;;0.20;;
39222;SDS011;24936;46.328;11.026;2023-06-04T08:22:47;0.40;;;0.30;;
39222;SDS011;24936;46.328;11.026;2023-06-04T08:25:16;0.20;;;0.10;;
39222;SDS011;24936;46.328;11.026;2023-06-04T08:30:17;0.60;;;0.20;;
39222;SDS011;24936;46.328;11.026;2023-06-04T08:32:43;0.30;;;0.20;;
39222;SDS011;24936;46.328;11.026;2023-06-04T08:35:09;0.13;;;0.10;;
39222;SDS011;24936;46.328;11.026;2023-06-04T08:37:35;0.38;;;0.15;;
39222;SDS011;24936;46.328;11.026;2023-06-04T08:40:36;0.20;;;0.10;;
39222;SDS011;24936;46.328;11.026;2023-06-04T08:43:02;0.32;;;0.13;;
39222;SDS011;24936;46.328;11.026;2023-06-04T08:45:29;0.25;;;0.10;;
39222;SDS011;24936;46.328;11.026;2023-06-04T08:47:58;0.65;;;0.20;;
39222;SDS011;24936;46.328;11.026;2023-06-04T08:50:26;0.20;;;0.20;;
39222;SDS011;24936;46.328;11.026;2023-06-04T08:52:53;0.90;;;0.28;;
39222;SDS011;24936;46.328;11.026;2023-06-04T10:51:48;0.47;;;0.20;;
39222;SDS011;24936;46.328;11.026;2023-06-04T10:54:22;0.40;;;0.30;;
39222;SDS011;24936;46.328;11.026;2023-06-04T10:56:53;0.20;;;0.20;;
39222;SDS011;24936;46.328;11.026;2023-06-04T10:59:37;0.40;;;0.28;;
39222;SDS011;24936;46.328;11.026;2023-06-04T11:02:07;0.30;;;0.20;;
39222;SDS011;24936;46.328;11.026;2023-06-04T11:04:39;0.22;;;0.10;;
39222;SDS011;24936;46.328;11.026;2023-06-04T11:07:15;0.38;;;0.22;;
39222;SDS011;24936;46.328;11.026;2023-06-04T11:25:19;0.38;;;0.20;;
39222;SDS011;24936;46.328;11.026;2023-06-04T11:28:24;0.60;;;0.30;;
39222;SDS011;24936;46.328;11.026;2023-06-04T11:30:57;0.60;;;0.40;;
39222;SDS011;24936;46.328;11.026;2023-06-04T11:47:00;0.35;;;0.30;;
39222;SDS011;24936;46.328;11.026;2023-06-04T13:39:18;1.25;;;0.60;;
39222;SDS011;24936;46.328;11.026;2023-06-04T13:41:49;1.00;;;0.75;;
39222;SDS011;24936;46.328;11.026;2023-06-04T13:44:17;1.00;;;0.80;;
39222;SDS011;24936;46.328;11.026;2023-06-04T14:53:58;0.10;;;0.10;;
39222;SDS011;24936;46.328;11.026;2023-06-04T14:56:29;0.30;;;0.10;;
39222;SDS011;24936;46.328;11.026;2023-06-04T14:58:55;0.20;;;0.10;;
39222;SDS011;24936;46.328;11.026;2023-06-04T15:01:21;0.57;;;0.20;;
39222;SDS011;24936;46.328;11.026;2023-06-04T15:03:50;0.47;;;0.30;;
39222;SDS011;24936;46.328;11.026;2023-06-04T15:06:18;0.20;;;0.17;;
39222;SDS011;24936;46.328;11.026;2023-06-04T15:08:44;0.35;;;0.25;;
39222;SDS011;24936;46.328;11.026;2023-06-04T15:11:10;0.30;;;0.13;;
39222;SDS011;24936;46.328;11.026;2023-06-04T15:13:36;0.30;;;0.20;;
39222;SDS011;24936;46.328;11.026;2023-06-04T15:16:02;0.20;;;0.10;;
39222;SDS011;24936;46.328;11.026;2023-06-04T15:18:28;0.22;;;0.20;;
39222;SDS011;24936;46.328;11.026;2023-06-04T15:20:53;0.20;;;0.17;;
39222;SDS011;24936;46.328;11.026;2023-06-04T15:23:19;0.30;;;0.10;;
39222;SDS011;24936;46.328;11.026;2023-06-04T15:25:45;0.30;;;0.20;;
39222;SDS011;24936;46.328;11.026;2023-06-04T15:28:10;0.25;;;0.10;;
39222;SDS011;24936;46.328;11.026;2023-06-04T15:30:36;0.10;;;0.10;;
39222;SDS011;24936;46.328;11.026;2023-06-04T15:33:05;0.10;;;0.10;;
39222;SDS011;24936;46.328;11.026;2023-06-04T15:35:30;0.13;;;0.10;;
39222;SDS011;24936;46.328;11.026;2023-06-04T15:37:56;0.13;;;0.10;;
39222;SDS011;24936;46.328;11.026;2023-06-04T15:40:22;0.10;;;0.10;;
39222;SDS011;24936;46.328;11.026;2023-06-04T15:42:48;0.30;;;0.10;;
39222;SDS011;24936;46.328;11.026;2023-06-04T15:45:14;0.03;;;0.03;;
39222;SDS011;24936;46.328;11.026;2023-06-04T15:47:40;0.20;;;0.17;;
39222;SDS011;24936;46.328;11.026;2023-06-04T15:50:06;0.63;;;0.20;;
39222;SDS011;24936;46.328;11.026;2023-06-04T15:52:37;0.08;;;0.03;;
39222;SDS011;24936;46.328;11.026;2023-06-04T15:55:03;0.20;;;0.10;;
39222;SDS011;24936;46.328;11.026;2023-06-04T15:57:28;0.10;;;0.10;;
39222;SDS011;24936;46.328;11.026;2023-06-04T16:12:53;0.40;;;0.20;;
39222;SDS011;24936;46.328;11.026;2023-06-04T16:15:19;0.20;;;0.10;;
39222;SDS011;24936;46.328;11.026;2023-06-04T16:17:48;0.10;;;0.10;;
39222;SDS011;24936;46.328;11.026;2023-06-04T16:20:14;0.10;;;0.10;;
39222;SDS011;24936;46.328;11.026;2023-06-04T16:33:44;0.20;;;0.10;;
39222;SDS011;24936;46.328;11.026;2023-06-04T17:55:53;1.08;;;0.35;;
39222;SDS011;24936;46.328;11.026;2023-06-04T17:58:27;0.50;;;0.20;;
39222;SDS011;24936;46.328;11.026;2023-06-04T18:00:54;0.22;;;0.10;;
39222;SDS011;24936;46.328;11.026;2023-06-04T18:05:45;1.13;;;0.20;;
39222;SDS011;24936;46.328;11.026;2023-06-04T18:08:13;0.17;;;0.10;;
39222;SDS011;24936;46.328;11.026;2023-06-04T18:10:41;0.20;;;0.10;;
39222;SDS011;24936;46.328;11.026;2023-06-04T18:15:33;1.33;;;0.13;;
39222;SDS011;24936;46.328;11.026;2023-06-04T18:18:02;0.73;;;0.10;;
39222;SDS011;24936;46.328;11.026;2023-06-04T18:20:50;0.55;;;0.20;;
39222;SDS011;24936;46.328;11.026;2023-06-04T18:23:29;0.10;;;0.10;;
39222;SDS011;24936;46.328;11.026;2023-06-04T18:25:59;0.20;;;0.10;;
39222;SDS011;24936;46.328;11.026;2023-06-04T18:28:25;0.20;;;0.15;;
39222;SDS011;24936;46.328;11.026;2023-06-04T18:30:51;0.20;;;0.17;;
39222;SDS011;24936;46.328;11.026;2023-06-04T18:33:21;0.68;;;0.20;;
39222;SDS011;24936;46.328;11.026;2023-06-04T18:35:52;0.13;;;0.10;;
39222;SDS011;24936;46.328;11.026;2023-06-04T18:38:18;0.10;;;0.10;;
39222;SDS011;24936;46.328;11.026;2023-06-04T18:40:46;0.22;;;0.13;;
39222;SDS011;24936;46.328;11.026;2023-06-04T18:43:13;0.40;;;0.28;;
39222;SDS011;24936;46.328;11.026;2023-06-04T18:46:09;0.20;;;0.20;;
39222;SDS011;24936;46.328;11.026;2023-06-04T18:48:47;0.22;;;0.20;;
39222;SDS011;24936;46.328;11.026;2023-06-04T18:51:55;0.20;;;0.10;;
39222;SDS011;24936;46.328;11.026;2023-06-04T18:54:21;0.30;;;0.20;;
39222;SDS011;24936;46.328;11.026;2023-06-04T18:56:53;0.30;;;0.20;;
39222;SDS011;24936;46.328;11.026;2023-06-04T19:00:04;0.32;;;0.20;;
39222;SDS011;24936;46.328;11.026;2023-06-04T19:05:50;0.30;;;0.20;;
39222;SDS011;24936;46.328;11.026;2023-06-04T19:14:25;0.20;;;0.10;;
39222;SDS011;24936;46.328;11.026;2023-06-04T19:19:55;1.10;;;0.40;;
39222;SDS011;24936;46.328;11.026;2023-06-04T19:25:27;0.55;;;0.30;;
39222;SDS011;24936;46.328;11.026;2023-06-04T19:30:31;0.40;;;0.20;;
39222;SDS011;24936;46.328;11.026;2023-06-04T19:46:35;0.65;;;0.30;;
39222;SDS011;24936;46.328;11.026;2023-06-04T20:08:47;0.40;;;0.30;;
39222;SDS011;24936;46.328;11.026;2023-06-04T20:17:24;0.65;;;0.40;;
39222;SDS011;24936;46.328;11.026;2023-06-04T20:23:35;0.40;;;0.40;;
39222;SDS011;24936;46.328;11.026;2023-06-04T21:56:30;1.33;;;0.65;;
39222;SDS011;24936;46.328;11.026;2023-06-04T22:18:16;1.20;;;0.65;;
39222;SDS011;24936;46.328;11.026;2023-06-04T22:25:13;1.70;;;0.80;;
39222;SDS011;24936;46.328;11.026;2023-06-04T22:34:15;1.27;;;1.02;;
39222;SDS011;24936;46.328;11.026;2023-06-04T22:43:23;6.72;;;1.27;;
39222;SDS011;24936;46.328;11.026;2023-06-04T22:56:16;2.17;;;1.30;;
39222;SDS011;24936;46.328;11.026;2023-06-04T22:59:39;1.38;;;1.10;;
39222;SDS011;24936;46.328;11.026;2023-06-04T23:03:19;1.88;;;1.25;;
39222;SDS011;24936;46.328;11.026;2023-06-04T23:06:09;2.90;;;1.73;;
39222;SDS011;24936;46.328;11.026;2023-06-04T23:08:35;2.72;;;1.65;;
39222;SDS011;24936;46.328;11.026;2023-06-04T23:11:06;6.32;;;2.67;;
39222;SDS011;24936;46.328;11.026;2023-06-04T23:13:34;3.08;;;2.50;;
39222;SDS011;24936;46.328;11.026;2023-06-04T23:16:04;3.25;;;2.38;;
39222;SDS011;24936;46.328;11.026;2023-06-04T23:18:34;3.55;;;2.08;;
39222;SDS011;24936;46.328;11.026;2023-06-04T23:21:01;2.10;;;1.90;;
39222;SDS011;24936;46.328;11.026;2023-06-04T23:23:30;2.50;;;1.50;;
39222;SDS011;24936;46.328;11.026;2023-06-04T23:25:57;2.30;;;1.60;;
39222;SDS011;24936;46.328;11.026;2023-06-04T23:28:29;2.95;;;1.75;;
39222;SDS011;24936;46.328;11.026;2023-06-04T23:30:56;2.10;;;1.90;;
39222;SDS011;24936;46.328;11.026;2023-06-04T23:33:21;2.70;;;2.03;;
39222;SDS011;24936;46.328;11.026;2023-06-04T23:35:47;2.50;;;2.10;;
39222;SDS011;24936;46.328;11.026;2023-06-04T23:38:13;4.85;;;1.40;;
39222;SDS011;24936;46.328;11.026;2023-06-04T23:40:39;2.00;;;1.75;;
39222;SDS011;24936;46.328;11.026;2023-06-04T23:43:04;1.75;;;1.60;;
39222;SDS011;24936;46.328;11.026;2023-06-04T23:45:30;2.85;;;1.75;;
39222;SDS011;24936;46.328;11.026;2023-06-04T23:47:56;2.92;;;2.00;;
39222;SDS011;24936;46.328;11.026;2023-06-04T23:50:21;2.35;;;1.98;;
39222;SDS011;24936;46.328;11.026;2023-06-04T23:52:47;3.50;;;1.80;;
39222;SDS011;24936;46.328;11.026;2023-06-04T23:55:12;1.98;;;1.77;;
39222;SDS011;24936;46.328;11.026;2023-06-04T23:57:38;3.53;;;1.90;;
